ARE4219 SKCC-SKBO
Flight info
| Callsign | ARE4219 |
|---|---|
| Flight time | 0h 58m |
| Altitude | 30000 |
| Route | TORAT1B TORAT DCT DOPLO DOPLO5E |
| Aircraft | A320/M-SDE3FGHIRWY/LB1 |
Departure
| Time | 2026-04-22 03:30 |
|---|---|
| Airport | Camilo Daza International Airport (SKCC) |
Arrival
| Time | 2026-04-22 04:28 |
|---|---|
| Airport | El Dorado International Airport (SKBO) |
| Time | Latitude | Longitude | Altitude | Speed | Heading |
|---|---|---|---|---|---|
| 2026-04-22 02:50 | 7.92770 | -72.50801 | 1032 ft | 0 kts | 206° |
| 2026-04-22 03:21 | 7.92771 | -72.50800 | 1032 ft | 2 kts | 206° |
| 2026-04-22 03:21 | 7.92793 | -72.50788 | 1032 ft | 4 kts | 218° |
| 2026-04-22 03:21 | 7.92811 | -72.50769 | 1032 ft | 4 kts | 246° |
| 2026-04-22 03:21 | 7.92814 | -72.50747 | 1032 ft | 2 kts | 296° |
| 2026-04-22 03:22 | 7.92811 | -72.50742 | 1032 ft | 0 kts | 297° |
| 2026-04-22 03:23 | 7.92812 | -72.50744 | 1032 ft | 1 kts | 297° |
| 2026-04-22 03:24 | 7.92826 | -72.50772 | 1032 ft | 8 kts | 297° |
| 2026-04-22 03:24 | 7.92859 | -72.50837 | 1032 ft | 11 kts | 297° |
| 2026-04-22 03:24 | 7.92853 | -72.50902 | 1032 ft | 11 kts | 215° |
| 2026-04-22 03:24 | 7.92803 | -72.50958 | 1032 ft | 11 kts | 239° |
| 2026-04-22 03:25 | 7.92792 | -72.51029 | 1032 ft | 11 kts | 308° |
| 2026-04-22 03:25 | 7.92859 | -72.51065 | 1032 ft | 10 kts | 334° |
| 2026-04-22 03:25 | 7.92924 | -72.51095 | 1032 ft | 11 kts | 347° |
| 2026-04-22 03:25 | 7.93003 | -72.51078 | 1030 ft | 13 kts | 19° |
| 2026-04-22 03:26 | 7.93102 | -72.51047 | 1024 ft | 17 kts | 17° |
| 2026-04-22 03:26 | 7.93201 | -72.51017 | 1018 ft | 16 kts | 17° |
| 2026-04-22 03:26 | 7.93316 | -72.50980 | 1012 ft | 13 kts | 18° |
| 2026-04-22 03:26 | 7.93382 | -72.50965 | 1010 ft | 8 kts | 350° |
| 2026-04-22 03:27 | 7.93419 | -72.50964 | 1009 ft | 2 kts | 49° |
| 2026-04-22 03:27 | 7.93410 | -72.50953 | 1009 ft | 2 kts | 142° |
| 2026-04-22 03:27 | 7.93397 | -72.50954 | 1009 ft | 2 kts | 197° |
| 2026-04-22 03:27 | 7.93394 | -72.50955 | 1009 ft | 0 kts | 199° |
| 2026-04-22 03:29 | 7.93350 | -72.50970 | 1011 ft | 33 kts | 198° |
| 2026-04-22 03:30 | 7.92874 | -72.51118 | 1033 ft | 106 kts | 197° |
| 2026-04-22 03:30 | 7.91988 | -72.51397 | 1084 ft | 156 kts | 197° |
| 2026-04-22 03:30 | 7.90967 | -72.51729 | 1715 ft | 154 kts | 197° |
| 2026-04-22 03:30 | 7.89941 | -72.52040 | 2317 ft | 158 kts | 198° |
| 2026-04-22 03:31 | 7.88835 | -72.52380 | 2581 ft | 175 kts | 198° |
| 2026-04-22 03:31 | 7.87550 | -72.52495 | 2814 ft | 200 kts | 175° |
| 2026-04-22 03:31 | 7.86103 | -72.52309 | 3162 ft | 218 kts | 174° |
| 2026-04-22 03:31 | 7.84528 | -72.52177 | 3697 ft | 231 kts | 176° |
| 2026-04-22 03:32 | 7.82914 | -72.52087 | 4455 ft | 234 kts | 177° |
| 2026-04-22 03:32 | 7.81272 | -72.52000 | 5162 ft | 238 kts | 176° |
| 2026-04-22 03:32 | 7.79627 | -72.51658 | 5869 ft | 244 kts | 161° |
| 2026-04-22 03:32 | 7.78054 | -72.50942 | 6487 ft | 256 kts | 155° |
| 2026-04-22 03:33 | 7.76413 | -72.50141 | 7070 ft | 266 kts | 154° |
| 2026-04-22 03:33 | 7.74738 | -72.49325 | 7845 ft | 269 kts | 155° |
| 2026-04-22 03:33 | 7.73037 | -72.48498 | 8623 ft | 273 kts | 154° |
| 2026-04-22 03:33 | 7.71309 | -72.47668 | 9403 ft | 276 kts | 157° |
| 2026-04-22 03:34 | 7.69480 | -72.47133 | 10100 ft | 280 kts | 173° |
| 2026-04-22 03:34 | 7.67526 | -72.47024 | 10813 ft | 283 kts | 179° |
| 2026-04-22 03:34 | 7.65557 | -72.46970 | 11555 ft | 283 kts | 179° |
| 2026-04-22 03:34 | 7.63574 | -72.46913 | 12267 ft | 286 kts | 178° |
| 2026-04-22 03:35 | 7.61581 | -72.46858 | 12977 ft | 287 kts | 180° |
| 2026-04-22 03:35 | 7.59586 | -72.47095 | 13579 ft | 295 kts | 194° |
| 2026-04-22 03:35 | 7.57548 | -72.47709 | 13716 ft | 317 kts | 198° |
| 2026-04-22 03:35 | 7.55370 | -72.48405 | 13853 ft | 338 kts | 198° |
| 2026-04-22 03:36 | 7.53073 | -72.49142 | 14111 ft | 352 kts | 198° |
| 2026-04-22 03:36 | 7.50730 | -72.49936 | 14590 ft | 358 kts | 203° |
| 2026-04-22 03:36 | 7.48526 | -72.51117 | 15120 ft | 361 kts | 211° |
| 2026-04-22 03:36 | 7.46350 | -72.52395 | 15676 ft | 363 kts | 211° |
| 2026-04-22 03:37 | 7.44149 | -72.53681 | 16260 ft | 366 kts | 210° |
| 2026-04-22 03:37 | 7.41933 | -72.54971 | 16806 ft | 369 kts | 211° |
| 2026-04-22 03:37 | 7.39699 | -72.56272 | 17361 ft | 372 kts | 211° |
| 2026-04-22 03:37 | 7.37442 | -72.57585 | 17923 ft | 375 kts | 211° |
| 2026-04-22 03:38 | 7.35201 | -72.58888 | 18457 ft | 378 kts | 211° |
| 2026-04-22 03:38 | 7.32914 | -72.60223 | 18928 ft | 381 kts | 211° |
| 2026-04-22 03:38 | 7.30576 | -72.61585 | 19397 ft | 385 kts | 210° |
| 2026-04-22 03:38 | 7.28282 | -72.62922 | 19850 ft | 388 kts | 210° |
| 2026-04-22 03:39 | 7.25939 | -72.64287 | 20321 ft | 390 kts | 210° |
| 2026-04-22 03:39 | 7.23577 | -72.65661 | 20790 ft | 394 kts | 210° |
| 2026-04-22 03:39 | 7.21195 | -72.67047 | 21248 ft | 397 kts | 210° |
| 2026-04-22 03:39 | 7.18777 | -72.68455 | 21698 ft | 400 kts | 210° |
| 2026-04-22 03:40 | 7.16352 | -72.69868 | 22157 ft | 403 kts | 210° |
| 2026-04-22 03:40 | 7.13920 | -72.71286 | 22615 ft | 406 kts | 210° |
| 2026-04-22 03:40 | 7.11458 | -72.72722 | 23074 ft | 409 kts | 210° |
| 2026-04-22 03:40 | 7.08977 | -72.74165 | 23518 ft | 412 kts | 210° |
| 2026-04-22 03:41 | 7.06487 | -72.75611 | 23915 ft | 415 kts | 210° |
| 2026-04-22 03:41 | 7.04004 | -72.77053 | 24280 ft | 418 kts | 210° |
| 2026-04-22 03:41 | 7.01453 | -72.78534 | 24656 ft | 420 kts | 210° |
| 2026-04-22 03:41 | 6.98948 | -72.79992 | 25025 ft | 421 kts | 210° |
| 2026-04-22 03:42 | 6.96405 | -72.81473 | 25375 ft | 423 kts | 210° |
| 2026-04-22 03:42 | 6.93850 | -72.82961 | 25738 ft | 425 kts | 210° |
| 2026-04-22 03:42 | 6.91284 | -72.84454 | 26100 ft | 427 kts | 210° |
| 2026-04-22 03:42 | 6.88701 | -72.85955 | 26452 ft | 429 kts | 210° |
| 2026-04-22 03:43 | 6.86111 | -72.87461 | 26790 ft | 431 kts | 210° |
| 2026-04-22 03:43 | 6.83510 | -72.88975 | 27121 ft | 433 kts | 210° |
| 2026-04-22 03:43 | 6.80898 | -72.90496 | 27442 ft | 435 kts | 210° |
| 2026-04-22 03:43 | 6.78267 | -72.92024 | 27776 ft | 437 kts | 210° |
| 2026-04-22 03:44 | 6.75629 | -72.93555 | 28093 ft | 439 kts | 210° |
| 2026-04-22 03:44 | 6.72979 | -72.95090 | 28414 ft | 440 kts | 210° |
| 2026-04-22 03:44 | 6.70312 | -72.96635 | 28734 ft | 442 kts | 210° |
| 2026-04-22 03:44 | 6.67677 | -72.98166 | 29073 ft | 444 kts | 210° |
| 2026-04-22 03:45 | 6.64997 | -72.99727 | 29409 ft | 446 kts | 210° |
| 2026-04-22 03:45 | 6.62299 | -73.01298 | 29748 ft | 448 kts | 210° |
| 2026-04-22 03:45 | 6.59596 | -73.02868 | 30037 ft | 449 kts | 210° |
| 2026-04-22 03:45 | 6.56911 | -73.04425 | 30103 ft | 438 kts | 210° |
| 2026-04-22 03:46 | 6.51738 | -73.07423 | 30113 ft | 424 kts | 210° |
| 2026-04-22 03:46 | 6.46642 | -73.10382 | 30113 ft | 422 kts | 210° |
| 2026-04-22 03:47 | 6.41556 | -73.13338 | 30106 ft | 422 kts | 210° |
| 2026-04-22 03:47 | 6.36515 | -73.16267 | 30129 ft | 422 kts | 210° |
| 2026-04-22 03:48 | 6.31421 | -73.19218 | 30135 ft | 422 kts | 210° |
| 2026-04-22 03:48 | 6.26331 | -73.22162 | 30161 ft | 422 kts | 210° |
| 2026-04-22 03:49 | 6.21248 | -73.25105 | 30152 ft | 421 kts | 210° |
| 2026-04-22 03:49 | 6.16163 | -73.28056 | 30157 ft | 421 kts | 210° |
| 2026-04-22 03:50 | 6.11112 | -73.30987 | 30184 ft | 421 kts | 210° |
| 2026-04-22 03:50 | 6.06025 | -73.33932 | 30184 ft | 421 kts | 210° |
| 2026-04-22 03:51 | 6.00939 | -73.36875 | 30189 ft | 421 kts | 210° |
| 2026-04-22 03:51 | 5.95851 | -73.39815 | 30209 ft | 421 kts | 210° |
| 2026-04-22 03:52 | 5.90773 | -73.42759 | 30207 ft | 421 kts | 210° |
| 2026-04-22 03:52 | 5.85696 | -73.45705 | 30212 ft | 421 kts | 210° |
| 2026-04-22 03:53 | 5.80864 | -73.49026 | 30231 ft | 421 kts | 216° |
| 2026-04-22 03:53 | 5.76176 | -73.52501 | 30225 ft | 422 kts | 216° |
| 2026-04-22 03:54 | 5.71452 | -73.56012 | 30238 ft | 422 kts | 216° |
| 2026-04-22 03:54 | 5.66728 | -73.59515 | 30257 ft | 422 kts | 216° |
| 2026-04-22 03:55 | 5.61999 | -73.63026 | 30257 ft | 422 kts | 216° |
| 2026-04-22 03:55 | 5.57267 | -73.66533 | 30250 ft | 422 kts | 216° |
| 2026-04-22 03:56 | 5.52529 | -73.70030 | 30278 ft | 426 kts | 216° |
| 2026-04-22 03:56 | 5.50135 | -73.71798 | 30282 ft | 437 kts | 216° |
| 2026-04-22 03:56 | 5.47656 | -73.73634 | 30273 ft | 445 kts | 216° |
| 2026-04-22 03:57 | 5.42877 | -73.77606 | 30282 ft | 448 kts | 230° |
| 2026-04-22 03:57 | 5.41135 | -73.80190 | 30258 ft | 442 kts | 242° |
| 2026-04-22 03:57 | 5.39987 | -73.83012 | 29925 ft | 433 kts | 250° |
| 2026-04-22 03:58 | 5.39008 | -73.85862 | 29438 ft | 429 kts | 250° |
| 2026-04-22 03:58 | 5.38052 | -73.88682 | 28948 ft | 425 kts | 250° |
| 2026-04-22 03:58 | 5.37105 | -73.91477 | 28467 ft | 421 kts | 250° |
| 2026-04-22 03:58 | 5.36162 | -73.94250 | 27966 ft | 418 kts | 250° |
| 2026-04-22 03:59 | 5.35223 | -73.97001 | 27503 ft | 415 kts | 250° |
| 2026-04-22 03:59 | 5.34287 | -73.99730 | 27062 ft | 412 kts | 250° |
| 2026-04-22 03:59 | 5.33359 | -74.02432 | 26712 ft | 407 kts | 250° |
| 2026-04-22 03:59 | 5.32449 | -74.05090 | 26595 ft | 397 kts | 251° |
| 2026-04-22 04:00 | 5.31563 | -74.07682 | 26375 ft | 389 kts | 251° |
| 2026-04-22 04:00 | 5.30985 | -74.09379 | 26174 ft | 386 kts | 251° |
| 2026-04-22 04:00 | 5.29837 | -74.12745 | 25721 ft | 383 kts | 251° |
| 2026-04-22 04:00 | 5.28972 | -74.15269 | 25357 ft | 380 kts | 250° |
| 2026-04-22 04:01 | 5.28111 | -74.17772 | 24991 ft | 378 kts | 250° |
| 2026-04-22 04:01 | 5.27534 | -74.19451 | 24776 ft | 377 kts | 250° |
| 2026-04-22 04:01 | 5.26405 | -74.22738 | 24250 ft | 374 kts | 250° |
| 2026-04-22 04:01 | 5.25843 | -74.24372 | 24011 ft | 373 kts | 250° |
| 2026-04-22 04:02 | 5.24730 | -74.27624 | 23677 ft | 364 kts | 250° |
| 2026-04-22 04:02 | 5.24189 | -74.29206 | 23512 ft | 359 kts | 250° |
| 2026-04-22 04:02 | 5.23117 | -74.32345 | 23165 ft | 351 kts | 250° |
| 2026-04-22 04:02 | 5.22593 | -74.33871 | 22992 ft | 347 kts | 250° |
| 2026-04-22 04:03 | 5.22037 | -74.36203 | 22708 ft | 341 kts | 265° |
| 2026-04-22 04:03 | 5.22216 | -74.38551 | 22456 ft | 336 kts | 284° |
| 2026-04-22 04:03 | 5.23112 | -74.40690 | 22196 ft | 332 kts | 302° |
| 2026-04-22 04:03 | 5.24602 | -74.42423 | 21959 ft | 327 kts | 320° |
| 2026-04-22 04:04 | 5.26519 | -74.43606 | 21715 ft | 323 kts | 338° |
| 2026-04-22 04:04 | 5.28672 | -74.44155 | 21448 ft | 318 kts | 355° |
| 2026-04-22 04:04 | 5.30859 | -74.44037 | 21204 ft | 314 kts | 13° |
| 2026-04-22 04:04 | 5.32945 | -74.43433 | 20965 ft | 309 kts | 19° |
| 2026-04-22 04:05 | 5.34953 | -74.42691 | 20724 ft | 306 kts | 21° |
| 2026-04-22 04:05 | 5.36913 | -74.41895 | 20485 ft | 302 kts | 22° |
| 2026-04-22 04:05 | 5.38789 | -74.40983 | 20254 ft | 298 kts | 34° |
| 2026-04-22 04:05 | 5.40318 | -74.39637 | 20020 ft | 295 kts | 51° |
| 2026-04-22 04:06 | 5.41440 | -74.37896 | 19799 ft | 303 kts | 66° |
| 2026-04-22 04:06 | 5.42051 | -74.35853 | 19571 ft | 309 kts | 83° |
| 2026-04-22 04:06 | 5.42037 | -74.33704 | 19370 ft | 308 kts | 101° |
| 2026-04-22 04:06 | 5.41389 | -74.31671 | 19144 ft | 307 kts | 118° |
| 2026-04-22 04:07 | 5.40172 | -74.29923 | 18918 ft | 305 kts | 135° |
| 2026-04-22 04:07 | 5.38504 | -74.28617 | 18699 ft | 304 kts | 152° |
| 2026-04-22 04:07 | 5.36538 | -74.27867 | 18470 ft | 303 kts | 169° |
| 2026-04-22 04:07 | 5.34448 | -74.27728 | 18247 ft | 302 kts | 186° |
| 2026-04-22 04:08 | 5.32416 | -74.28169 | 18196 ft | 303 kts | 197° |
| 2026-04-22 04:08 | 5.30391 | -74.28866 | 18202 ft | 304 kts | 200° |
| 2026-04-22 04:08 | 5.28448 | -74.29635 | 18202 ft | 304 kts | 202° |
| 2026-04-22 04:08 | 5.26490 | -74.30447 | 18238 ft | 304 kts | 202° |
| 2026-04-22 04:09 | 5.24535 | -74.31263 | 18235 ft | 304 kts | 202° |
| 2026-04-22 04:09 | 5.22548 | -74.32058 | 18238 ft | 316 kts | 200° |
| 2026-04-22 04:09 | 5.20407 | -74.32790 | 18236 ft | 331 kts | 197° |
| 2026-04-22 04:09 | 5.18185 | -74.33472 | 18236 ft | 335 kts | 196° |
| 2026-04-22 04:10 | 5.15938 | -74.34129 | 18238 ft | 336 kts | 196° |
| 2026-04-22 04:10 | 5.13691 | -74.34779 | 18238 ft | 336 kts | 196° |
| 2026-04-22 04:10 | 5.11440 | -74.35437 | 18270 ft | 336 kts | 196° |
| 2026-04-22 04:10 | 5.09199 | -74.36103 | 18229 ft | 336 kts | 197° |
| 2026-04-22 04:11 | 5.06959 | -74.36781 | 18230 ft | 336 kts | 197° |
| 2026-04-22 04:11 | 5.04743 | -74.37458 | 18230 ft | 337 kts | 197° |
| 2026-04-22 04:11 | 5.02503 | -74.38144 | 18230 ft | 337 kts | 197° |
| 2026-04-22 04:11 | 5.00267 | -74.38827 | 18230 ft | 337 kts | 197° |
| 2026-04-22 04:12 | 4.98021 | -74.39512 | 18238 ft | 337 kts | 197° |
| 2026-04-22 04:12 | 4.95786 | -74.40194 | 18234 ft | 332 kts | 197° |
| 2026-04-22 04:12 | 4.93587 | -74.40660 | 18234 ft | 317 kts | 180° |
| 2026-04-22 04:12 | 4.91452 | -74.40311 | 18253 ft | 311 kts | 158° |
| 2026-04-22 04:13 | 4.89638 | -74.39156 | 18265 ft | 310 kts | 134° |
| 2026-04-22 04:13 | 4.88310 | -74.37466 | 18278 ft | 310 kts | 125° |
| 2026-04-22 04:13 | 4.87076 | -74.35738 | 18315 ft | 297 kts | 126° |
| 2026-04-22 04:13 | 4.85640 | -74.34333 | 18314 ft | 282 kts | 151° |
| 2026-04-22 04:14 | 4.83813 | -74.33743 | 18327 ft | 277 kts | 178° |
| 2026-04-22 04:14 | 4.81936 | -74.34059 | 18329 ft | 276 kts | 205° |
| 2026-04-22 04:14 | 4.80419 | -74.35206 | 18329 ft | 276 kts | 233° |
| 2026-04-22 04:14 | 4.79604 | -74.36924 | 18298 ft | 275 kts | 261° |
| 2026-04-22 04:15 | 4.79677 | -74.38829 | 18285 ft | 275 kts | 288° |
| 2026-04-22 04:15 | 4.80612 | -74.40475 | 18221 ft | 272 kts | 315° |
| 2026-04-22 04:15 | 4.82012 | -74.41712 | 17863 ft | 272 kts | 318° |
| 2026-04-22 04:15 | 4.83390 | -74.43019 | 17542 ft | 271 kts | 316° |
| 2026-04-22 04:16 | 4.84735 | -74.44339 | 17251 ft | 269 kts | 315° |
| 2026-04-22 04:16 | 4.87392 | -74.46956 | 16701 ft | 265 kts | 315° |
| 2026-04-22 04:16 | 4.88703 | -74.48248 | 16441 ft | 263 kts | 315° |
| 2026-04-22 04:17 | 4.90003 | -74.49531 | 16179 ft | 261 kts | 315° |
| 2026-04-22 04:17 | 4.91294 | -74.50804 | 15881 ft | 259 kts | 315° |
| 2026-04-22 04:17 | 4.92578 | -74.52060 | 15715 ft | 252 kts | 319° |
| 2026-04-22 04:17 | 4.94046 | -74.52937 | 15568 ft | 241 kts | 342° |
| 2026-04-22 04:18 | 4.95654 | -74.53137 | 15500 ft | 227 kts | 5° |
| 2026-04-22 04:18 | 4.97124 | -74.52735 | 15447 ft | 213 kts | 27° |
| 2026-04-22 04:18 | 4.98268 | -74.51879 | 15397 ft | 199 kts | 48° |
| 2026-04-22 04:18 | 4.98996 | -74.50778 | 15350 ft | 188 kts | 67° |
| 2026-04-22 04:19 | 4.99333 | -74.49510 | 15326 ft | 186 kts | 86° |
| 2026-04-22 04:19 | 4.99249 | -74.48225 | 15213 ft | 185 kts | 104° |
| 2026-04-22 04:19 | 4.98771 | -74.47054 | 15069 ft | 184 kts | 123° |
| 2026-04-22 04:19 | 4.97950 | -74.46073 | 14915 ft | 184 kts | 134° |
| 2026-04-22 04:20 | 4.97054 | -74.45156 | 14712 ft | 183 kts | 134° |
| 2026-04-22 04:20 | 4.96169 | -74.44240 | 14453 ft | 183 kts | 134° |
| 2026-04-22 04:20 | 4.95287 | -74.43327 | 14198 ft | 182 kts | 134° |
| 2026-04-22 04:20 | 4.94407 | -74.42418 | 13930 ft | 181 kts | 134° |
| 2026-04-22 04:21 | 4.93530 | -74.41512 | 13654 ft | 181 kts | 134° |
| 2026-04-22 04:21 | 4.92657 | -74.40609 | 13376 ft | 180 kts | 134° |
| 2026-04-22 04:21 | 4.91786 | -74.39707 | 13112 ft | 180 kts | 133° |
| 2026-04-22 04:21 | 4.90917 | -74.38807 | 12851 ft | 179 kts | 133° |
| 2026-04-22 04:22 | 4.90053 | -74.37911 | 12605 ft | 178 kts | 133° |
| 2026-04-22 04:22 | 4.89192 | -74.37020 | 12353 ft | 178 kts | 133° |
| 2026-04-22 04:22 | 4.88330 | -74.36128 | 12103 ft | 178 kts | 133° |
| 2026-04-22 04:22 | 4.87476 | -74.35245 | 11969 ft | 175 kts | 133° |
| 2026-04-22 04:23 | 4.86611 | -74.34351 | 11954 ft | 179 kts | 133° |
| 2026-04-22 04:23 | 4.85742 | -74.33452 | 11955 ft | 179 kts | 133° |
| 2026-04-22 04:23 | 4.84869 | -74.32549 | 11956 ft | 181 kts | 133° |
| 2026-04-22 04:23 | 4.83995 | -74.31644 | 11962 ft | 181 kts | 133° |
| 2026-04-22 04:24 | 4.83193 | -74.30678 | 11967 ft | 181 kts | 130° |
| 2026-04-22 04:24 | 4.82374 | -74.29718 | 11816 ft | 179 kts | 128° |
| 2026-04-22 04:24 | 4.81598 | -74.28746 | 11618 ft | 178 kts | 127° |
| 2026-04-22 04:24 | 4.80842 | -74.27763 | 11415 ft | 178 kts | 126° |
| 2026-04-22 04:25 | 4.80095 | -74.26781 | 11195 ft | 176 kts | 126° |
| 2026-04-22 04:25 | 4.79355 | -74.25805 | 10985 ft | 175 kts | 126° |
| 2026-04-22 04:25 | 4.78620 | -74.24833 | 10773 ft | 175 kts | 126° |
| 2026-04-22 04:25 | 4.77887 | -74.23863 | 10566 ft | 174 kts | 126° |
| 2026-04-22 04:26 | 4.77161 | -74.22905 | 10374 ft | 169 kts | 126° |
| 2026-04-22 04:26 | 4.76461 | -74.21979 | 10159 ft | 168 kts | 127° |
| 2026-04-22 04:26 | 4.75747 | -74.21035 | 9931 ft | 167 kts | 127° |
| 2026-04-22 04:26 | 4.75048 | -74.20110 | 9697 ft | 166 kts | 127° |
| 2026-04-22 04:27 | 4.74362 | -74.19204 | 9467 ft | 165 kts | 128° |
| 2026-04-22 04:27 | 4.73666 | -74.18295 | 9242 ft | 165 kts | 128° |
| 2026-04-22 04:27 | 4.72966 | -74.17387 | 9001 ft | 164 kts | 127° |
| 2026-04-22 04:27 | 4.72291 | -74.16461 | 8749 ft | 164 kts | 127° |
| 2026-04-22 04:28 | 4.71600 | -74.15556 | 8533 ft | 163 kts | 127° |
| 2026-04-22 04:28 | 4.70914 | -74.14651 | 8374 ft | 159 kts | 127° |
| 2026-04-22 04:28 | 4.70374 | -74.13934 | 8370 ft | 88 kts | 127° |
| 2026-04-22 04:28 | 4.70184 | -74.13687 | 8370 ft | 11 kts | 135° |
| 2026-04-22 04:29 | 4.70114 | -74.13672 | 8371 ft | 10 kts | 155° |
| 2026-04-22 04:29 | 4.70047 | -74.13641 | 8371 ft | 11 kts | 158° |
| 2026-04-22 04:29 | 4.69973 | -74.13613 | 8372 ft | 12 kts | 156° |
| 2026-04-22 04:29 | 4.69900 | -74.13621 | 8373 ft | 12 kts | 232° |
| 2026-04-22 04:30 | 4.69880 | -74.13704 | 8373 ft | 13 kts | 269° |
| 2026-04-22 04:30 | 4.69925 | -74.13782 | 8373 ft | 14 kts | 308° |
| 2026-04-22 04:30 | 4.69962 | -74.13843 | 8373 ft | 7 kts | 272° |
| 2026-04-22 04:30 | 4.69934 | -74.13887 | 8373 ft | 8 kts | 246° |
| 2026-04-22 04:31 | 4.69954 | -74.13940 | 8374 ft | 9 kts | 307° |
| 2026-04-22 04:31 | 4.69993 | -74.13993 | 8373 ft | 9 kts | 307° |
| 2026-04-22 04:31 | 4.70036 | -74.14049 | 8373 ft | 11 kts | 307° |
| 2026-04-22 04:31 | 4.70038 | -74.14095 | 8373 ft | 7 kts | 218° |
| 2026-04-22 04:32 | 4.69997 | -74.14121 | 8374 ft | 4 kts | 218° |
| 2026-04-22 04:32 | 4.69989 | -74.14128 | 8373 ft | 0 kts | 218° |